Latest Coastal Weather Observations for Brisbane Airport

IDQ60701

Issued at 11:52 pm EST Wednesday 10 August 2022 (issued every 10 minutes, with the page automatically refreshed every 10 minutes)

About coastal observations | Map of coastal stations | Coastal observations for QLD | Marine services | Other Formats
Station Details ID: 040842 Name: BRISBANE AERO Lat: -27.39 Lon: 153.13 Height: 4.51 m
Data from the previous 72 hours. | See also: Recent months at Brisbane Airport
Date/Time
EST
Wind Sea
Height
m
Swell Vis
km
Cloud Weather Temp
°C
Press
MSL
hPa
Rain since
9am
mm
Dir  Spd
kts
Gust
kts
Height
m
Period
s
Dir
10/11:30pm SSW 8 9 - - - - 10 - - 12.3 1024.9 0.0
10/11:00pm SSW 6 7 - - - - 10 - - 10.6 1024.8 0.0
10/10:30pm SSW 5 6 - - - - 10 - - 12.9 1025.1 0.0
10/10:00pm SSW 6 7 - - - - 10 - - 13.8 1025.4 0.0
10/09:30pm SSW 5 8 - - - - 10 - - 14.2 1025.5 0.0
10/09:00pm SSW 6 9 - - - - 30 Clear Fine 14.1 1025.4 0.0
10/08:30pm S 6 8 - - - - 10 - - 14.5 1025.4 0.0
10/08:00pm SSE 7 15 - - - - 10 - - 15.3 1025.1 0.0
10/07:30pm SSE 8 14 - - - - 10 - - 15.9 1024.8 0.0
10/07:00pm SSE 8 15 - - - - 10 - - 16.4 1024.6 0.0
10/06:30pm SE 7 13 - - - - 10 - - 16.9 1024.2 0.0
10/06:00pm SE 9 16 - - - - 40 Mostly clear Fine 16.8 1023.8 0.0
10/05:30pm SE 8 15 - - - - 10 - - 17.3 1023.5 0.0
10/05:00pm ESE 8 12 - - - - 10 - - 17.7 1023.4 0.0
10/04:30pm ESE 9 15 - - - - 10 - - 18.4 1023.1 0.0
10/04:00pm ESE 9 15 - - - - 10 Mostly clear - 18.8 1023.1 0.0
10/03:30pm ESE 10 16 - - - - 10 Partly cloudy - 19.2 1023.2 0.0
10/03:00pm ESE 11 17 - - - - 40 Mostly clear Fine 19.9 1023.2 0.0
10/02:30pm ESE 10 14 - - - - 10 Partly cloudy - 19.7 1023.4 0.0
10/02:00pm ESE 9 16 - - - - 10 Partly cloudy - 20.1 1023.6 0.0
10/01:30pm ESE 10 16 - - - - 10 Partly cloudy - 19.5 1023.8 0.0
10/01:00pm ESE 13 20 - - - - 10 Partly cloudy - 19.1 1023.8 0.0
10/12:30pm ESE 11 18 - - - - 10 Partly cloudy - 18.9 1024.0 0.0
10/12:00pm SE 8 13 - - - - 40 Partly cloudy Fine 19.4 1024.4 0.0
10/11:30am S 8 16 - - - - 10 Mostly clear - 18.8 1024.8 0.0
10/11:00am S 9 15 - - - - 10 Mostly clear - 18.6 1025.1 0.0
10/10:30am S 9 14 - - - - 10 Mostly clear - 18.0 1025.3 0.0
10/10:00am SSW 8 12 - - - - 10 Mostly clear - 17.2 1025.4 0.0
10/09:30am SW 10 14 - - - - 10 - - 16.3 1025.4 0.0
10/09:00am SW 12 15 - - - - 40 Mostly clear Fine 15.5 1025.2 0.0
10/08:30am SW 13 17 - - - - 10 - - 14.3 1025.0 0.0
10/08:00am SSW 10 14 - - - - 10 - - 13.3 1024.9 0.0
10/07:30am SSW 9 11 - - - - 10 - - 12.0 1024.7 0.0
10/07:00am SW 7 9 - - - - 10 - - 9.9 1024.2 0.0
10/06:30am SSW 8 10 - - - - 10 - - 9.5 1023.9 0.0
10/06:00am SSW 7 9 - - - - 30 Mostly clear Fine 10.4 1023.4 0.0
10/05:30am SSW 7 9 - - - - 10 - - 10.4 1022.9 0.0
10/05:00am SSW 7 10 - - - - 10 - - 10.5 1022.5 0.0
10/04:30am SSW 7 9 - - - - 10 - - 10.9 1022.2 0.0
10/04:00am SW 8 9 - - - - 10 - - 9.8 1022.2 0.0
10/03:30am SSW 7 8 - - - - 10 - - 10.1 1022.2 0.0
10/03:00am SSW 8 10 - - - - 30 Clear Fine 10.1 1022.3 0.0
10/02:30am SSW 7 8 - - - - 10 - - 10.6 1022.4 0.0
10/02:00am SSW 6 7 - - - - 10 Partly cloudy - 11.4 1022.5 0.0
10/01:30am SSW 7 9 - - - - 10 Partly cloudy - 12.6 1022.5 0.0
10/01:00am SSW 5 7 - - - - 10 Partly cloudy - 12.8 1022.4 0.0
10/12:30am SSW 6 7 - - - - 10 Partly cloudy - 11.4 1022.5 0.0
10/12:00am SSW 5 6 - - - - 30 Mostly cloudy Fine 12.6 1022.3 0.0
 
Date/Time
EST
Wind Sea
Height
m
Swell Vis
km
Cloud Weather Temp
°C
Press
MSL
hPa
Rain since
9am
mm
Dir  Spd
kts
Gust
kts
Height
m
Period
s
Dir
09/11:30pm SSW 4 5 - - - - 10 Partly cloudy - 12.9 1022.2 0.0
09/11:00pm S 5 8 - - - - 10 Partly cloudy - 13.7 1022.3 0.0
09/10:30pm SSE 5 8 - - - - 10 Partly cloudy - 14.6 1022.2 0.0
09/10:00pm SSE 6 9 - - - - 10 Cloudy - 15.2 1022.1 0.0
09/09:30pm SSE 7 14 - - - - 10 Cloudy - 15.4 1021.9 0.0
09/09:00pm SSE 8 15 - - - - 30 Mostly cloudy Fine 15.6 1021.9 0.0
09/08:30pm SSE 7 11 - - - - 10 Partly cloudy - 15.6 1021.7 0.0
09/08:00pm SSE 8 14 - - - - 10 Partly cloudy - 16.0 1021.5 0.0
09/07:30pm SSE 6 13 - - - - 10 Partly cloudy - 16.1 1021.0 0.0
09/07:00pm SSE 6 10 - - - - 10 Partly cloudy - 16.2 1020.7 0.0
09/06:30pm SE 8 12 - - - - 10 Partly cloudy - 16.8 1020.6 0.0
09/06:00pm ESE 7 11 - - - - 40 Mostly cloudy Fine 16.9 1020.1 0.0
09/05:30pm ESE 7 10 - - - - 10 Mostly clear - 17.0 1019.6 0.0
09/05:00pm ESE 6 10 - - - - 10 Mostly clear - 17.1 1019.2 0.0
09/04:30pm ESE 7 10 - - - - 10 Mostly clear - 17.3 1018.9 0.0
09/04:00pm E 8 10 - - - - 10 Partly cloudy - 18.3 1018.6 0.0
09/03:30pm ENE 5 9 - - - - 10 Partly cloudy - 19.2 1018.4 0.0
09/03:00pm S 5 7 - - - - 40 Partly cloudy Fine 18.8 1018.4 0.0
09/02:30pm ENE 3 5 - - - - 10 Partly cloudy - 19.9 1018.4 0.0
09/02:00pm SW 8 14 - - - - 10 Partly cloudy - 19.7 1018.6 0.0
09/01:30pm SW 8 14 - - - - 10 Partly cloudy - 20.5 1018.8 0.0
09/01:23pm SW 8 14 - - - - 10 - - 20.4 1018.9 0.0
09/01:00pm SW 8 16 - - - - 10 Partly cloudy - 20.4 1019.2 0.0
09/12:30pm WSW 8 14 - - - - 10 Partly cloudy - 20.3 1019.6 0.0
09/12:00pm SW 8 12 - - - - 40 Mostly clear Fine 19.6 1020.0 0.0
09/11:30am SSW 7 12 - - - - 10 Mostly clear - 19.0 1020.5 0.0
09/11:00am SW 8 11 - - - - 10 Mostly clear - 18.3 1021.1 0.0
09/10:30am SW 8 12 - - - - 10 Mostly clear - 18.0 1021.5 0.0
09/10:00am SSW 9 13 - - - - 10 Mostly clear - 17.2 1021.7 0.0
09/09:30am SW 11 15 - - - - 10 Mostly clear - 16.1 1021.9 0.0
09/09:00am SW 11 15 - - - - 40 Mostly clear Fine 15.4 1021.7 0.0
09/08:30am SW 11 15 - - - - 10 - - 14.5 1021.7 0.0
09/08:00am SW 6 9 - - - - 10 - - 13.4 1021.4 0.0
09/07:30am SW 6 7 - - - - 10 - - 11.3 1021.3 0.0
09/07:00am SW 6 7 - - - - 10 - - 9.5 1020.9 0.0
09/06:30am SSW 6 8 - - - - 10 - - 8.6 1020.7 0.0
09/06:00am SSW 5 8 - - - - 40 Clear Fine 8.2 1020.3 0.0
09/05:30am SW 6 8 - - - - 10 - - 7.8 1019.9 0.0
09/05:00am SW 5 6 - - - - 10 - - 8.7 1019.8 0.0
09/04:30am SW 4 5 - - - - 10 - - 8.3 1019.6 0.0
09/04:00am SW 4 5 - - - - 10 - - 9.1 1019.6 0.0
09/03:30am SSW 5 6 - - - - 10 - - 9.5 1019.5 0.0
09/03:00am SSW 5 6 - - - - 40 Mostly clear Fine 10.8 1019.6 0.0
09/02:30am SSW 4 5 - - - - 10 Partly cloudy - 9.9 1019.5 0.0
09/02:00am SSW 5 6 - - - - 10 - - 10.5 1019.5 0.0
09/01:30am SSW 5 6 - - - - 10 - - 9.6 1019.8 0.0
09/01:00am SSW 5 6 - - - - 10 - - 10.2 1020.0 0.0
09/12:30am SW 5 6 - - - - 10 - - 11.4 1020.1 0.0
09/12:00am SSW 5 6 - - - - 40 Clear Fine 11.0 1020.0 0.0
 
Date/Time
EST
Wind Sea
Height
m
Swell Vis
km
Cloud Weather Temp
°C
Press
MSL
hPa
Rain since
9am
mm
Dir  Spd
kts
Gust
kts
Height
m
Period
s
Dir
08/11:30pm SSW 5 6 - - - - 10 - - 11.1 1020.1 0.0
08/11:00pm WSW 5 6 - - - - 10 - - 11.4 1020.1 0.0
08/10:30pm SSW 4 7 - - - - 10 - - 12.3 1020.1 0.0
08/10:00pm SSW 5 9 - - - - 10 - - 13.0 1020.0 0.0
08/09:30pm S 5 6 - - - - 10 - - 14.6 1019.9 0.0
08/09:00pm SSE 5 7 - - - - 40 Clear Fine 15.5 1019.8 0.0
08/08:30pm SE 6 7 - - - - 10 - - 15.4 1019.6 0.0
08/08:00pm SE 4 6 - - - - 10 - - 14.9 1019.5 0.0
08/07:30pm SE 5 7 - - - - 10 - - 15.3 1019.4 0.0
08/07:00pm ESE 4 6 - - - - 10 - - 15.8 1019.2 0.0
08/06:30pm ESE 4 5 - - - - 10 - - 16.0 1018.9 0.0
08/06:00pm ESE 5 8 - - - - 40 Mostly clear Fine 15.9 1018.5 0.0
08/05:30pm ESE 5 7 - - - - 10 Mostly clear - 16.2 1018.3 0.0
08/05:00pm E 5 8 - - - - 10 - - 17.4 1017.9 0.0
08/04:30pm NE 7 9 - - - - 10 - - 17.5 1017.6 0.0
08/04:00pm NE 7 8 - - - - 10 - - 18.7 1017.3 0.0
08/03:30pm NE 8 9 - - - - 10 - - 19.1 1017.0 0.0
08/03:00pm NE 9 10 - - - - 40 Mostly clear Fine 19.3 1016.9 0.0
08/02:30pm NE 7 11 - - - - 10 - - 20.6 1017.1 0.0
08/02:00pm SE 8 14 - - - - 10 - - 20.3 1017.4 0.0
08/01:30pm S 6 9 - - - - 10 - - 19.8 1017.4 0.0
08/01:00pm SW 6 9 - - - - 10 - - 19.2 1017.8 0.0
08/12:30pm SW 5 9 - - - - 10 - - 19.2 1018.2 0.0
08/12:00pm SW 8 11 - - - - 40 Clear Fine 18.9 1018.5 0.0
08/11:30am SW 9 12 - - - - 10 - - 18.7 1018.8 0.0
08/11:00am SW 10 14 - - - - 10 - - 18.0 1019.2 0.0
08/10:30am SW 8 13 - - - - 10 - - 17.3 1019.7 0.0
08/10:00am SW 9 14 - - - - 10 - - 17.4 1019.9 0.0
08/09:30am SW 11 15 - - - - 10 - - 16.1 1020.1 0.0
08/09:00am SW 11 16 - - - - 40 Clear Fine 15.4 1020.1 0.0
08/08:30am SW 12 15 - - - - 10 - - 14.6 1019.9 0.0
08/08:00am SW 8 9 - - - - 10 - - 12.9 1019.7 0.0
08/07:30am SW 5 7 - - - - 10 - - 10.4 1019.5 0.0
08/07:00am SW 6 7 - - - - 10 - - 8.7 1019.2 0.0
08/06:30am SSW 5 6 - - - - 10 - - 9.1 1018.9 0.0
08/06:00am SSW 5 7 - - - - 40 Clear Fine 8.3 1018.5 0.0
08/05:30am S 5 6 - - - - 10 - - 8.3 1018.1 0.0
08/05:00am SW 7 9 - - - - 10 - - 8.7 1017.7 0.0
08/04:30am SW 7 8 - - - - 10 - - 8.2 1017.5 0.0
08/04:00am SSW 7 8 - - - - 10 - - 9.8 1017.3 0.0
08/03:30am SSW 6 7 - - - - 10 - - 9.5 1017.3 0.0
08/03:00am SW 7 8 - - - - 40 Clear Fine 10.0 1017.2 0.0
08/02:30am SW 5 8 - - - - 10 - - 7.4 1017.3 0.0
08/02:00am SW 6 7 - - - - 10 - - 10.3 1017.4 0.0
08/01:30am WSW 7 8 - - - - 10 - - 10.3 1017.3 0.0
08/01:00am WNW 9 11 - - - - 10 - - 11.4 1017.5 0.0
08/12:30am W 7 8 - - - - 10 - - 9.9 1018.1 0.0
08/12:00am WSW 9 17 - - - - 40 Clear Fine 9.3 1018.0 0.0

Other formats

Comma delimited format used in spreadsheet applications
http://www.bom.gov.au/fwo/IDQ60701/IDQ60701.94578.axf

JavaScript Object Notation format (JSON) in row-major order
http://www.bom.gov.au/fwo/IDQ60701/IDQ60701.94578.json

Data quality

Most of these data are generated automatically and are frequently updated. Quality checks on data are not normally performed. It is possible for incorrect values to appear. Refer to information at About Latest Weather Observations and please check the disclaimer before using these data.